Time;durP1;ratioP1;P1;durP2;ratioP2;P2;SDS_P1;SDS_P2;PMS_P1;PMS_P2;Temp;Humidity;BMP_temperature;BMP_pressure;BME280_temperature;BME280_humidity;BME280_pressure;Samples;Min_cycle;Max_cycle;Signal;HPM_P1;HPM_P2
2023/05/24 00:00:57;;;;;;;;;;;;;;;;;;5113994;27;2242;-55
2023/05/24 00:03:24;;;;;;;;;;;;;;;;;;5132033;27;1455;-56
2023/05/24 00:05:52;;;;;;;;;;;;;;;;;;5132004;28;1667;-60
2023/05/24 00:08:19;;;;;;;;;;;;;;;;;;5131804;28;2041;-61
2023/05/24 00:10:47;;;;;;;;;;;;;;;;;;5132339;28;1568;-57
2023/05/24 00:13:14;;;;;;;;;;;;;;;;;;5132082;28;1330;-59
2023/05/24 00:15:41;;;;;;;;;;;;;;;;;;5131808;28;1960;-57
2023/05/24 00:18:09;;;;;;;;;;;;;;;;;;5132188;28;2057;-57
2023/05/24 00:20:36;;;;;;;;;;;;;;;;;;5132180;28;2115;-51
2023/05/24 00:23:03;;;;;;;;;;;;;;;;;;5131904;28;1723;-57
2023/05/24 00:25:30;;;;;;;;;;;;;;;;;;5132062;28;1397;-61
2023/05/24 00:27:58;;;;;;;;;;;;;;;;;;5131902;28;1685;-57
2023/05/24 00:30:25;;;;;;;;;;;;;;;;;;5131975;28;1833;-60
2023/05/24 00:32:57;;;;;;;;;;;;;;;;;;5131589;28;1712;-53
2023/05/24 00:35:24;;;;;;;;;;;;;;;;;;5133445;27;2151;-58
2023/05/24 00:37:52;;;;;;;;;;;;;;;;;;5135969;27;2106;-54
2023/05/24 00:40:19;;;;;;;;;;;;;;;;;;5096633;28;2013;-56
2023/05/24 00:42:47;;;;;;;;;;;;;;;;;;5076571;28;1881;-57
2023/05/24 00:45:15;;;;;;;;;;;;;;;;;;5097815;28;2110;-55
2023/05/24 00:47:42;;;;;;;;;;;;;;;;;;5096916;28;1649;-58
2023/05/24 00:50:15;;;;;;;;;;;;;;;;;;5114935;28;1322;-58
2023/05/24 00:52:43;;;;;;;;;;;;;;;;;;5115077;28;1823;-58
2023/05/24 00:55:11;;;;;;;;;;;;;;;;;;5097066;28;1521;-57
2023/05/24 00:57:38;;;;;;;;;;;;;;;;;;5123813;27;2099;-54
2023/05/24 01:00:06;;;;;;;;;;;;;;;;;;5135559;27;1847;-61
2023/05/24 01:02:34;;;;;;;;;;;;;;;;;;5135364;27;2083;-54
2023/05/24 01:05:01;;;;;;;;;;;;;;;;;;5135692;27;2127;-56
2023/05/24 01:07:29;;;;;;;;;;;;;;;;;;5135352;27;1627;-51
2023/05/24 01:10:07;;;;;;;;;;;;;;;;;;5135825;27;2039;-57
2023/05/24 01:12:34;;;;;;;;;;;;;;;;;;5135437;27;1670;-55
2023/05/24 01:15:07;;;;;;;;;;;;;;;;;;5135248;27;1580;-59
2023/05/24 01:17:45;;;;;;;;;;;;;;;;;;5135183;27;1963;-57
2023/05/24 01:20:13;;;;;;;;;;;;;;;;;;5135509;27;1969;-57
2023/05/24 01:22:44;;;;;;;;;;;;;;;;;;5135292;27;2313;-58
2023/05/24 01:25:30;;;;;;;;;;;;;;;;;;5116776;27;2092;-60
2023/05/24 01:27:58;;;;;;;;;;;;;;;;;;5134671;27;1669;-57
2023/05/24 01:30:26;;;;;;;;;;;;;;;;;;5135117;27;1670;-60
2023/05/24 01:32:55;;;;;;;;;;;;;;;;;;5134940;27;1490;-55
2023/05/24 01:35:22;;;;;;;;;;;;;;;;;;5134860;27;1979;-59
2023/05/24 01:37:50;;;;;;;;;;;;;;;;;;5134842;27;1819;-57
2023/05/24 01:40:17;;;;;;;;;;;;;;;;;;5116245;27;1866;-55
2023/05/24 01:42:48;;;;;;;;;;;;;;;;;;5134715;27;2000;-49
2023/05/24 01:45:18;;;;;;;;;;;;;;;;;;5134764;27;2253;-54
2023/05/24 01:48:02;;;;;;;;;;;;;;;;;;5133721;27;1614;-54
2023/05/24 01:50:37;;;;;;;;;;;;;;;;;;5134199;27;1329;-55
2023/05/24 01:53:08;;;;;;;;;;;;;;;;;;5115352;27;1995;-55
2023/05/24 01:55:36;;;;;;;;;;;;;;;;;;5114173;28;1986;-56
2023/05/24 01:58:03;;;;;;;;;;;;;;;;;;5125841;27;1303;-58
2023/05/24 02:00:31;;;;;;;;;;;;;;;;;;5134586;27;1245;-55
2023/05/24 02:03:00;;;;;;;;;;;;;;;;;;5130607;27;1480;-59
2023/05/24 02:05:28;;;;;;;;;;;;;;;;;;5113635;28;1766;-54
2023/05/24 02:07:58;;;;;;;;;;;;;;;;;;5113802;28;1803;-50
2023/05/24 02:10:28;;;;;;;;;;;;;;;;;;5099764;28;1763;-62
2023/05/24 02:12:56;;;;;;;;;;;;;;;;;;5092993;28;1905;-57
2023/05/24 02:15:23;;;;;;;;;;;;;;;;;;5093103;28;2148;-57
2023/05/24 02:17:53;;;;;;;;;;;;;;;;;;5075019;28;2084;-60
2023/05/24 02:20:24;;;;;;;;;;;;;;;;;;5093039;28;1938;-62
2023/05/24 02:22:52;;;;;;;;;;;;;;;;;;5092953;28;1747;-60
2023/05/24 02:25:19;;;;;;;;;;;;;;;;;;5093167;28;1581;-66
2023/05/24 02:27:46;;;;;;;;;;;;;;;;;;5093036;28;1825;-63
2023/05/24 02:30:14;;;;;;;;;;;;;;;;;;5092870;28;1519;-61
2023/05/24 02:32:41;;;;;;;;;;;;;;;;;;5074525;28;1616;-51
2023/05/24 02:35:08;;;;;;;;;;;;;;;;;;5074437;28;2126;-64
2023/05/24 02:37:36;;;;;;;;;;;;;;;;;;5092587;28;1911;-63
2023/05/24 02:40:03;;;;;;;;;;;;;;;;;;5092627;28;2041;-57
2023/05/24 02:42:30;;;;;;;;;;;;;;;;;;5092463;28;1864;-52
2023/05/24 02:44:58;;;;;;;;;;;;;;;;;;5092565;28;2112;-49
2023/05/24 02:47:28;;;;;;;;;;;;;;;;;;5074481;28;2059;-50
2023/05/24 02:49:55;;;;;;;;;;;;;;;;;;5092234;28;1635;-52
2023/05/24 02:52:23;;;;;;;;;;;;;;;;;;5092460;28;2008;-53
2023/05/24 02:54:50;;;;;;;;;;;;;;;;;;5089628;28;1996;-49
2023/05/24 02:57:19;;;;;;;;;;;;;;;;;;5090802;28;2088;-49
2023/05/24 02:59:47;;;;;;;;;;;;;;;;;;5074207;28;2169;-48
2023/05/24 03:02:16;;;;;;;;;;;;;;;;;;5074051;28;1597;-47
2023/05/24 03:04:44;;;;;;;;;;;;;;;;;;5074121;28;1750;-62
2023/05/24 03:07:12;;;;;;;;;;;;;;;;;;5074002;28;2168;-50
2023/05/24 03:09:41;;;;;;;;;;;;;;;;;;5074262;28;1978;-49
2023/05/24 03:12:08;;;;;;;;;;;;;;;;;;5092422;28;1769;-47
2023/05/24 03:14:36;;;;;;;;;;;;;;;;;;5074358;28;1475;-51
2023/05/24 03:17:04;;;;;;;;;;;;;;;;;;5073908;28;2215;-47
2023/05/24 03:19:33;;;;;;;;;;;;;;;;;;5073950;28;2389;-49
2023/05/24 03:22:00;;;;;;;;;;;;;;;;;;5073657;28;1967;-49
2023/05/24 03:24:28;;;;;;;;;;;;;;;;;;5091679;28;1622;-51
2023/05/24 03:26:56;;;;;;;;;;;;;;;;;;5085171;28;2048;-56
2023/05/24 03:29:23;;;;;;;;;;;;;;;;;;5090424;28;2068;-57
2023/05/24 03:31:52;;;;;;;;;;;;;;;;;;5073707;28;2378;-48
2023/05/24 03:34:19;;;;;;;;;;;;;;;;;;5073461;28;1702;-62
2023/05/24 03:36:46;;;;;;;;;;;;;;;;;;5091495;28;1912;-49
2023/05/24 03:39:14;;;;;;;;;;;;;;;;;;5073755;28;1789;-48
2023/05/24 03:41:59;;;;;;;;;;;;;;;;;;5090693;28;1877;-52
2023/05/24 03:44:26;;;;;;;;;;;;;;;;;;5073394;28;2046;-54
2023/05/24 03:46:53;;;;;;;;;;;;;;;;;;5073628;28;1830;-49
2023/05/24 03:49:20;;;;;;;;;;;;;;;;;;5073770;28;2119;-50
2023/05/24 03:51:48;;;;;;;;;;;;;;;;;;5073812;28;2047;-50
2023/05/24 03:54:17;;;;;;;;;;;;;;;;;;5102008;28;1928;-51
2023/05/24 03:56:44;;;;;;;;;;;;;;;;;;5093245;28;1913;-52
2023/05/24 03:59:12;;;;;;;;;;;;;;;;;;5111818;28;1868;-56
2023/05/24 04:01:39;;;;;;;;;;;;;;;;;;5111563;28;1933;-50
2023/05/24 04:04:07;;;;;;;;;;;;;;;;;;5093421;28;2430;-47
2023/05/24 04:06:35;;;;;;;;;;;;;;;;;;5111682;28;1766;-51
2023/05/24 04:09:04;;;;;;;;;;;;;;;;;;5111656;28;1607;-48
2023/05/24 04:11:31;;;;;;;;;;;;;;;;;;5111370;28;1502;-52
2023/05/24 04:14:00;;;;;;;;;;;;;;;;;;5093357;28;2001;-48
2023/05/24 04:16:28;;;;;;;;;;;;;;;;;;5093028;28;1971;-62
2023/05/24 04:18:56;;;;;;;;;;;;;;;;;;5093235;28;1888;-49
2023/05/24 04:21:26;;;;;;;;;;;;;;;;;;5093360;28;1965;-50
2023/05/24 04:23:54;;;;;;;;;;;;;;;;;;5093665;28;1896;-51
2023/05/24 04:26:22;;;;;;;;;;;;;;;;;;5111542;28;2003;-47
2023/05/24 04:28:50;;;;;;;;;;;;;;;;;;5110996;28;2068;-46
2023/05/24 04:31:18;;;;;;;;;;;;;;;;;;5092904;28;1532;-48
2023/05/24 04:33:46;;;;;;;;;;;;;;;;;;5111614;28;1443;-51
2023/05/24 04:36:14;;;;;;;;;;;;;;;;;;5092624;28;2227;-47
2023/05/24 04:38:44;;;;;;;;;;;;;;;;;;5111458;28;1849;-50
2023/05/24 04:41:12;;;;;;;;;;;;;;;;;;5111197;28;1838;-53
2023/05/24 04:43:39;;;;;;;;;;;;;;;;;;5093317;28;2264;-60
2023/05/24 04:46:06;;;;;;;;;;;;;;;;;;5111341;28;1872;-52
2023/05/24 04:48:35;;;;;;;;;;;;;;;;;;5111464;28;1829;-54
2023/05/24 04:51:03;;;;;;;;;;;;;;;;;;5111624;28;1609;-47
2023/05/24 04:53:31;;;;;;;;;;;;;;;;;;5110994;28;1960;-50
2023/05/24 04:55:58;;;;;;;;;;;;;;;;;;5092966;28;1838;-51
2023/05/24 04:58:26;;;;;;;;;;;;;;;;;;5111178;28;1910;-47
2023/05/24 05:00:53;;;;;;;;;;;;;;;;;;5111313;28;2008;-47
2023/05/24 05:03:20;;;;;;;;;;;;;;;;;;5111200;28;1724;-48
2023/05/24 05:05:49;;;;;;;;;;;;;;;;;;5111647;28;1887;-47
2023/05/24 05:08:17;;;;;;;;;;;;;;;;;;5099425;28;1973;-50
2023/05/24 05:10:45;;;;;;;;;;;;;;;;;;5090722;28;1994;-49
2023/05/24 05:13:12;;;;;;;;;;;;;;;;;;5090807;28;1725;-51
2023/05/24 05:15:39;;;;;;;;;;;;;;;;;;5090782;28;1448;-57
2023/05/24 05:18:08;;;;;;;;;;;;;;;;;;5090365;28;2007;-47
2023/05/24 05:20:35;;;;;;;;;;;;;;;;;;5090805;28;2318;-50
2023/05/24 05:23:02;;;;;;;;;;;;;;;;;;5093008;28;2092;-47
2023/05/24 05:25:32;;;;;;;;;;;;;;;;;;5094207;28;2184;-48
2023/05/24 05:27:59;;;;;;;;;;;;;;;;;;5094208;28;1972;-48
2023/05/24 05:30:26;;;;;;;;;;;;;;;;;;5094195;28;1985;-50
2023/05/24 05:32:53;;;;;;;;;;;;;;;;;;5094153;28;1644;-48
2023/05/24 05:35:21;;;;;;;;;;;;;;;;;;5094125;28;1441;-56
2023/05/24 05:37:48;;;;;;;;;;;;;;;;;;5093732;28;1918;-49
2023/05/24 05:40:15;;;;;;;;;;;;;;;;;;5093781;28;1541;-50
2023/05/24 05:42:42;;;;;;;;;;;;;;;;;;5092981;28;1818;-47
2023/05/24 05:45:10;;;;;;;;;;;;;;;;;;5093816;28;1851;-48
2023/05/24 05:47:37;;;;;;;;;;;;;;;;;;5093812;28;1853;-48
2023/05/24 05:50:04;;;;;;;;;;;;;;;;;;5092402;28;1859;-48
2023/05/24 05:52:32;;;;;;;;;;;;;;;;;;5093690;28;1893;-49
2023/05/24 05:54:59;;;;;;;;;;;;;;;;;;5092516;28;1745;-51
2023/05/24 05:57:26;;;;;;;;;;;;;;;;;;5114234;28;1957;-51
2023/05/24 05:59:53;;;;;;;;;;;;;;;;;;5114392;28;2030;-49
2023/05/24 06:02:21;;;;;;;;;;;;;;;;;;5113952;28;1165;-50
2023/05/24 06:04:49;;;;;;;;;;;;;;;;;;5113827;28;1966;-52
2023/05/24 06:07:16;;;;;;;;;;;;;;;;;;5113796;28;2044;-49
2023/05/24 06:09:43;;;;;;;;;;;;;;;;;;5113619;28;1747;-50
2023/05/24 06:12:11;;;;;;;;;;;;;;;;;;5113596;28;2269;-56
2023/05/24 06:14:38;;;;;;;;;;;;;;;;;;5113618;28;1628;-47
2023/05/24 06:17:05;;;;;;;;;;;;;;;;;;5113341;28;1999;-47
2023/05/24 06:19:33;;;;;;;;;;;;;;;;;;5113555;28;1967;-47
2023/05/24 06:22:00;;;;;;;;;;;;;;;;;;5113683;28;1988;-55
2023/05/24 06:24:27;;;;;;;;;;;;;;;;;;5113518;28;1802;-52
2023/05/24 06:26:54;;;;;;;;;;;;;;;;;;5113085;28;1951;-50
2023/05/24 06:29:22;;;;;;;;;;;;;;;;;;5113522;28;1981;-48
2023/05/24 06:31:49;;;;;;;;;;;;;;;;;;5113243;28;2194;-50
2023/05/24 06:34:19;;;;;;;;;;;;;;;;;;5112985;28;2225;-48
2023/05/24 06:36:49;;;;;;;;;;;;;;;;;;5113182;28;2002;-47
2023/05/24 06:39:17;;;;;;;;;;;;;;;;;;5095440;28;1881;-48
2023/05/24 06:41:45;;;;;;;;;;;;;;;;;;5113105;28;1705;-47
2023/05/24 06:44:13;;;;;;;;;;;;;;;;;;5112851;28;1986;-49
2023/05/24 06:46:40;;;;;;;;;;;;;;;;;;5094724;28;1996;-49
2023/05/24 06:49:07;;;;;;;;;;;;;;;;;;5112754;28;1468;-50
2023/05/24 06:51:36;;;;;;;;;;;;;;;;;;5112934;28;1841;-46
2023/05/24 06:54:04;;;;;;;;;;;;;;;;;;5112715;28;1830;-50
2023/05/24 06:56:31;;;;;;;;;;;;;;;;;;5112962;28;2143;-50
2023/05/24 06:58:59;;;;;;;;;;;;;;;;;;5112553;28;1965;-51
2023/05/24 07:01:26;;;;;;;;;;;;;;;;;;5112501;28;1555;-51
2023/05/24 07:03:54;;;;;;;;;;;;;;;;;;5112493;28;2119;-48
2023/05/24 07:06:21;;;;;;;;;;;;;;;;;;5112620;28;2154;-63
2023/05/24 07:08:49;;;;;;;;;;;;;;;;;;5112811;28;2028;-49
2023/05/24 07:11:16;;;;;;;;;;;;;;;;;;5112469;28;1895;-47
2023/05/24 07:13:43;;;;;;;;;;;;;;;;;;5112620;28;1802;-51
2023/05/24 07:16:10;;;;;;;;;;;;;;;;;;5112781;28;2184;-49
2023/05/24 07:18:40;;;;;;;;;;;;;;;;;;5112534;28;1971;-54
2023/05/24 07:21:07;;;;;;;;;;;;;;;;;;5112435;28;1961;-48
2023/05/24 07:23:37;;;;;;;;;;;;;;;;;;5112496;28;1648;-49
2023/05/24 07:26:04;;;;;;;;;;;;;;;;;;5112275;28;1647;-49
2023/05/24 07:28:31;;;;;;;;;;;;;;;;;;5112142;28;2072;-51
2023/05/24 07:30:59;;;;;;;;;;;;;;;;;;5111939;28;1697;-48
2023/05/24 07:33:26;;;;;;;;;;;;;;;;;;5112255;28;1280;-49
2023/05/24 07:35:54;;;;;;;;;;;;;;;;;;5112177;28;1472;-55
2023/05/24 07:38:21;;;;;;;;;;;;;;;;;;5111787;28;1926;-48
2023/05/24 07:40:48;;;;;;;;;;;;;;;;;;5112157;28;2214;-48
2023/05/24 07:43:15;;;;;;;;;;;;;;;;;;5112004;28;1518;-48
2023/05/24 07:45:42;;;;;;;;;;;;;;;;;;5111241;28;2048;-47
2023/05/24 07:48:10;;;;;;;;;;;;;;;;;;5111886;28;1929;-48
2023/05/24 07:50:37;;;;;;;;;;;;;;;;;;5112052;28;1753;-47
2023/05/24 07:53:05;;;;;;;;;;;;;;;;;;5093863;28;1307;-50
2023/05/24 07:55:32;;;;;;;;;;;;;;;;;;5111726;28;2051;-48
2023/05/24 07:58:00;;;;;;;;;;;;;;;;;;5111720;28;1981;-50
2023/05/24 08:00:28;;;;;;;;;;;;;;;;;;5111752;28;1965;-51
2023/05/24 08:02:56;;;;;;;;;;;;;;;;;;5111758;28;2015;-49
2023/05/24 08:05:23;;;;;;;;;;;;;;;;;;5111689;28;1707;-49
2023/05/24 08:07:51;;;;;;;;;;;;;;;;;;5111759;28;1866;-49
2023/05/24 08:10:18;;;;;;;;;;;;;;;;;;5111732;28;1978;-62
2023/05/24 08:12:45;;;;;;;;;;;;;;;;;;5111757;28;1516;-55
2023/05/24 08:15:13;;;;;;;;;;;;;;;;;;5111369;28;2092;-55
2023/05/24 08:17:40;;;;;;;;;;;;;;;;;;5111489;28;1975;-52
2023/05/24 08:20:08;;;;;;;;;;;;;;;;;;5111740;28;1490;-59
2023/05/24 08:22:36;;;;;;;;;;;;;;;;;;5111852;28;1817;-52
2023/05/24 08:25:03;;;;;;;;;;;;;;;;;;5111678;28;1790;-63
2023/05/24 08:27:31;;;;;;;;;;;;;;;;;;5111328;28;1648;-54
2023/05/24 08:29:59;;;;;;;;;;;;;;;;;;5093312;28;2571;-62
2023/05/24 08:32:26;;;;;;;;;;;;;;;;;;5111405;28;1795;-57
2023/05/24 08:34:54;;;;;;;;;;;;;;;;;;5111488;28;1162;-62
2023/05/24 08:37:32;;;;;;;;;;;;;;;;;;5111402;28;1928;-48
2023/05/24 08:39:59;;;;;;;;;;;;;;;;;;5111360;28;1807;-55
2023/05/24 08:42:27;;;;;;;;;;;;;;;;;;5111298;28;1974;-64
2023/05/24 08:45:02;;;;;;;;;;;;;;;;;;5111163;28;1680;-63
2023/05/24 08:47:30;;;;;;;;;;;;;;;;;;5111395;28;1889;-47
2023/05/24 08:49:57;;;;;;;;;;;;;;;;;;5110982;28;2121;-49
2023/05/24 08:52:25;;;;;;;;;;;;;;;;;;5111041;28;1756;-59
2023/05/24 08:54:52;;;;;;;;;;;;;;;;;;5111242;28;1703;-50
2023/05/24 08:57:21;;;;;;;;;;;;;;;;;;5114387;28;1909;-51
2023/05/24 08:59:48;;;;;;;;;;;;;;;;;;5114799;28;1622;-52
2023/05/24 09:02:16;;;;;;;;;;;;;;;;;;5114987;28;1511;-51
2023/05/24 09:04:45;;;;;;;;;;;;;;;;;;5115029;28;2255;-47
2023/05/24 09:07:13;;;;;;;;;;;;;;;;;;5115224;28;1834;-48
2023/05/24 09:09:44;;;;;;;;;;;;;;;;;;5115146;28;1579;-60
2023/05/24 09:12:14;;;;;;;;;;;;;;;;;;5114908;28;2104;-49
2023/05/24 09:14:47;;;;;;;;;;;;;;;;;;5114710;28;1917;-63
2023/05/24 09:17:15;;;;;;;;;;;;;;;;;;5114862;28;1766;-64
2023/05/24 09:19:45;;;;;;;;;;;;;;;;;;5114817;28;2030;-61
2023/05/24 09:22:13;;;;;;;;;;;;;;;;;;5114971;28;1902;-63
2023/05/24 09:24:40;;;;;;;;;;;;;;;;;;5114566;28;1441;-52
2023/05/24 09:27:08;;;;;;;;;;;;;;;;;;5114606;28;2355;-59
2023/05/24 09:29:36;;;;;;;;;;;;;;;;;;5114333;28;1652;-54
2023/05/24 09:32:06;;;;;;;;;;;;;;;;;;5114320;28;1682;-52
2023/05/24 09:34:40;;;;;;;;;;;;;;;;;;5114566;28;1814;-48
2023/05/24 09:37:15;;;;;;;;;;;;;;;;;;5114398;28;1998;-60
2023/05/24 09:39:43;;;;;;;;;;;;;;;;;;5114267;28;2069;-50
2023/05/24 09:42:15;;;;;;;;;;;;;;;;;;5114848;28;2056;-51
2023/05/24 09:44:43;;;;;;;;;;;;;;;;;;5114411;28;1756;-53
2023/05/24 09:47:11;;;;;;;;;;;;;;;;;;5114421;28;2145;-53
2023/05/24 09:49:38;;;;;;;;;;;;;;;;;;5113694;28;1949;-53
2023/05/24 09:52:05;;;;;;;;;;;;;;;;;;5114081;28;1948;-51
2023/05/24 09:54:33;;;;;;;;;;;;;;;;;;5114177;28;1739;-57
2023/05/24 09:57:00;;;;;;;;;;;;;;;;;;5113990;28;1877;-49
2023/05/24 09:59:31;;;;;;;;;;;;;;;;;;5113908;28;1918;-56
2023/05/24 10:02:11;;;;;;;;;;;;;;;;;;5113767;28;2593;-49
2023/05/24 10:04:38;;;;;;;;;;;;;;;;;;5113816;28;1659;-51
2023/05/24 10:07:06;;;;;;;;;;;;;;;;;;5113349;28;1473;-56
2023/05/24 10:09:35;;;;;;;;;;;;;;;;;;5113452;28;1959;-47
2023/05/24 10:12:05;;;;;;;;;;;;;;;;;;5113616;28;2138;-48
2023/05/24 10:14:35;;;;;;;;;;;;;;;;;;5113676;28;1550;-49
2023/05/24 10:17:05;;;;;;;;;;;;;;;;;;5113313;28;1852;-50
2023/05/24 10:19:33;;;;;;;;;;;;;;;;;;5113356;28;1906;-56
2023/05/24 10:22:04;;;;;;;;;;;;;;;;;;5113562;28;1651;-48
2023/05/24 10:24:32;;;;;;;;;;;;;;;;;;5113474;28;2156;-58
2023/05/24 10:27:02;;;;;;;;;;;;;;;;;;5113207;28;1630;-50
2023/05/24 10:29:51;;;;;;;;;;;;;;;;;;5113166;28;1993;-50
2023/05/24 10:32:19;;;;;;;;;;;;;;;;;;5113803;28;2138;-49
2023/05/24 10:34:46;;;;;;;;;;;;;;;;;;5113527;28;1435;-47
2023/05/24 10:37:16;;;;;;;;;;;;;;;;;;5113665;28;2058;-61
2023/05/24 10:39:43;;;;;;;;;;;;;;;;;;5112847;28;1910;-51
2023/05/24 10:42:12;;;;;;;;;;;;;;;;;;5113263;28;1691;-47
2023/05/24 10:44:39;;;;;;;;;;;;;;;;;;5113241;28;1798;-48
2023/05/24 10:47:09;;;;;;;;;;;;;;;;;;5112980;28;1862;-48
2023/05/24 10:49:47;;;;;;;;;;;;;;;;;;5112880;28;1642;-49
2023/05/24 10:52:15;;;;;;;;;;;;;;;;;;5112958;28;1488;-49
2023/05/24 10:55:08;;;;;;;;;;;;;;;;;;5094782;28;2108;-48
2023/05/24 10:57:37;;;;;;;;;;;;;;;;;;5109473;28;1703;-48
2023/05/24 11:00:19;;;;;;;;;;;;;;;;;;5112608;28;1973;-52
2023/05/24 11:03:01;;;;;;;;;;;;;;;;;;5112513;28;1826;-49
2023/05/24 11:05:32;;;;;;;;;;;;;;;;;;5112800;28;2286;-53
2023/05/24 11:08:00;;;;;;;;;;;;;;;;;;5112499;28;1852;-49
2023/05/24 11:10:31;;;;;;;;;;;;;;;;;;5112590;28;1400;-48
2023/05/24 11:13:01;;;;;;;;;;;;;;;;;;5112337;28;2298;-50
2023/05/24 11:15:29;;;;;;;;;;;;;;;;;;5112495;28;2141;-52
2023/05/24 11:18:08;;;;;;;;;;;;;;;;;;5112373;28;1956;-48
2023/05/24 11:20:35;;;;;;;;;;;;;;;;;;5111417;28;1728;-66
2023/05/24 11:23:03;;;;;;;;;;;;;;;;;;5112388;28;1785;-48
2023/05/24 11:25:31;;;;;;;;;;;;;;;;;;5112355;28;1958;-51
2023/05/24 11:28:00;;;;;;;;;;;;;;;;;;5112036;28;1876;-49
2023/05/24 11:30:27;;;;;;;;;;;;;;;;;;5112171;28;2007;-49
2023/05/24 11:32:55;;;;;;;;;;;;;;;;;;5112213;28;1855;-50
2023/05/24 11:35:26;;;;;;;;;;;;;;;;;;5112066;28;1458;-49
2023/05/24 11:37:57;;;;;;;;;;;;;;;;;;5112023;28;1925;-63
2023/05/24 11:40:24;;;;;;;;;;;;;;;;;;5111731;28;2067;-59
2023/05/24 11:42:52;;;;;;;;;;;;;;;;;;5112134;28;2141;-64
2023/05/24 11:45:19;;;;;;;;;;;;;;;;;;5112177;28;1721;-65
2023/05/24 11:47:48;;;;;;;;;;;;;;;;;;5112057;28;1303;-49
2023/05/24 11:50:15;;;;;;;;;;;;;;;;;;5111772;28;1421;-50
2023/05/24 11:52:43;;;;;;;;;;;;;;;;;;5111640;28;1452;-50
2023/05/24 11:55:12;;;;;;;;;;;;;;;;;;5111855;28;2240;-53
2023/05/24 11:57:47;;;;;;;;;;;;;;;;;;5111711;28;1802;-49
2023/05/24 12:00:23;;;;;;;;;;;;;;;;;;5111824;28;1909;-51
2023/05/24 12:02:51;;;;;;;;;;;;;;;;;;5111832;28;1920;-49
2023/05/24 12:05:21;;;;;;;;;;;;;;;;;;5111911;28;2105;-55
2023/05/24 12:07:58;;;;;;;;;;;;;;;;;;5111840;28;1998;-65
2023/05/24 12:10:26;;;;;;;;;;;;;;;;;;5111659;28;1964;-64
2023/05/24 12:12:53;;;;;;;;;;;;;;;;;;5111789;28;2101;-49
2023/05/24 12:15:21;;;;;;;;;;;;;;;;;;5111776;28;2024;-47
2023/05/24 12:17:49;;;;;;;;;;;;;;;;;;5111285;28;1667;-57
2023/05/24 12:20:17;;;;;;;;;;;;;;;;;;5111424;28;2015;-60
2023/05/24 12:22:49;;;;;;;;;;;;;;;;;;5111436;28;1530;-48
2023/05/24 12:25:20;;;;;;;;;;;;;;;;;;5111510;28;2000;-66
2023/05/24 12:27:56;;;;;;;;;;;;;;;;;;5111174;28;2110;-49
2023/05/24 12:30:27;;;;;;;;;;;;;;;;;;5111565;28;1595;-51
2023/05/24 12:32:54;;;;;;;;;;;;;;;;;;5097217;28;2133;-50
2023/05/24 12:35:22;;;;;;;;;;;;;;;;;;5115854;28;1547;-50
2023/05/24 12:37:49;;;;;;;;;;;;;;;;;;5115393;28;1811;-50
2023/05/24 12:40:20;;;;;;;;;;;;;;;;;;5112185;28;1910;-48
2023/05/24 12:42:53;;;;;;;;;;;;;;;;;;5094858;28;2193;-46
2023/05/24 12:45:24;;;;;;;;;;;;;;;;;;5094979;28;1917;-54
2023/05/24 12:47:55;;;;;;;;;;;;;;;;;;5095114;28;1950;-55
2023/05/24 12:50:23;;;;;;;;;;;;;;;;;;5094962;28;1716;-50
2023/05/24 12:52:53;;;;;;;;;;;;;;;;;;5076657;28;2391;-52
2023/05/24 12:55:25;;;;;;;;;;;;;;;;;;5114530;28;2200;-55
2023/05/24 12:57:53;;;;;;;;;;;;;;;;;;5097312;28;2046;-53
2023/05/24 13:00:21;;;;;;;;;;;;;;;;;;5114862;28;2037;-49
2023/05/24 13:02:48;;;;;;;;;;;;;;;;;;5115048;28;1669;-55
2023/05/24 13:05:18;;;;;;;;;;;;;;;;;;5115031;28;1720;-48
2023/05/24 13:07:45;;;;;;;;;;;;;;;;;;5114719;28;1563;-64
2023/05/24 13:10:13;;;;;;;;;;;;;;;;;;5114992;28;2031;-58
2023/05/24 13:12:41;;;;;;;;;;;;;;;;;;5114887;28;1563;-47
2023/05/24 13:15:08;;;;;;;;;;;;;;;;;;5114869;28;1968;-50
2023/05/24 13:17:35;;;;;;;;;;;;;;;;;;5114618;28;1624;-65
2023/05/24 13:20:05;;;;;;;;;;;;;;;;;;5114755;28;2204;-53
2023/05/24 13:22:33;;;;;;;;;;;;;;;;;;5096293;28;2585;-67
2023/05/24 13:25:01;;;;;;;;;;;;;;;;;;5114753;28;1882;-50
2023/05/24 13:27:29;;;;;;;;;;;;;;;;;;5114643;28;1456;-46
2023/05/24 13:29:56;;;;;;;;;;;;;;;;;;5114713;28;2009;-66
2023/05/24 13:32:27;;;;;;;;;;;;;;;;;;5114250;28;1883;-53
2023/05/24 13:34:55;;;;;;;;;;;;;;;;;;5114402;28;1803;-47
2023/05/24 13:37:24;;;;;;;;;;;;;;;;;;5096233;28;2004;-48
2023/05/24 13:39:51;;;;;;;;;;;;;;;;;;5114120;28;1973;-52
2023/05/24 13:42:19;;;;;;;;;;;;;;;;;;5113124;28;1288;-59
2023/05/24 13:44:46;;;;;;;;;;;;;;;;;;5114134;28;1939;-49
2023/05/24 13:47:15;;;;;;;;;;;;;;;;;;5113992;28;1912;-57
2023/05/24 13:49:53;;;;;;;;;;;;;;;;;;5113899;28;1238;-49
2023/05/24 13:52:20;;;;;;;;;;;;;;;;;;5114127;28;2054;-67
2023/05/24 13:54:49;;;;;;;;;;;;;;;;;;5114222;28;1964;-66
2023/05/24 13:57:17;;;;;;;;;;;;;;;;;;5119475;27;1878;-51
2023/05/24 13:59:44;;;;;;;;;;;;;;;;;;5115887;27;2064;-50
2023/05/24 14:02:11;;;;;;;;;;;;;;;;;;5134699;27;1989;-69
2023/05/24 14:04:38;;;;;;;;;;;;;;;;;;5134255;27;2316;-64
2023/05/24 14:07:07;;;;;;;;;;;;;;;;;;5134469;27;1532;-60
2023/05/24 14:09:35;;;;;;;;;;;;;;;;;;5134241;27;1728;-56
2023/05/24 14:12:03;;;;;;;;;;;;;;;;;;5134256;27;1981;-59
2023/05/24 14:14:30;;;;;;;;;;;;;;;;;;5134328;27;1962;-57
2023/05/24 14:17:00;;;;;;;;;;;;;;;;;;5134250;27;1869;-61
2023/05/24 14:19:28;;;;;;;;;;;;;;;;;;5134320;27;1970;-62
2023/05/24 14:21:55;;;;;;;;;;;;;;;;;;5134048;27;2038;-60
2023/05/24 14:24:23;;;;;;;;;;;;;;;;;;5134393;27;1526;-64
2023/05/24 14:26:50;;;;;;;;;;;;;;;;;;5133862;27;1511;-60
2023/05/24 14:29:17;;;;;;;;;;;;;;;;;;5133742;27;1548;-60
2023/05/24 14:31:44;;;;;;;;;;;;;;;;;;5134007;27;1874;-61
2023/05/24 14:34:11;;;;;;;;;;;;;;;;;;5134085;27;1904;-57
2023/05/24 14:36:40;;;;;;;;;;;;;;;;;;5133954;27;1714;-60
2023/05/24 14:39:07;;;;;;;;;;;;;;;;;;5133534;27;1971;-53
2023/05/24 14:41:35;;;;;;;;;;;;;;;;;;5133468;27;2000;-58
2023/05/24 14:44:02;;;;;;;;;;;;;;;;;;5133745;27;1823;-58
2023/05/24 14:46:29;;;;;;;;;;;;;;;;;;5133873;27;2219;-58
2023/05/24 14:48:56;;;;;;;;;;;;;;;;;;5114874;27;1932;-61
2023/05/24 14:51:23;;;;;;;;;;;;;;;;;;5133641;27;1770;-60
2023/05/24 14:53:50;;;;;;;;;;;;;;;;;;5126108;27;1777;-63
2023/05/24 14:56:18;;;;;;;;;;;;;;;;;;5113108;28;1680;-63
2023/05/24 14:58:45;;;;;;;;;;;;;;;;;;5130553;27;2091;-52
2023/05/24 15:01:12;;;;;;;;;;;;;;;;;;5133431;27;1969;-63
2023/05/24 15:03:39;;;;;;;;;;;;;;;;;;5133183;27;2311;-48
2023/05/24 15:06:07;;;;;;;;;;;;;;;;;;5133200;27;1828;-60
2023/05/24 15:08:34;;;;;;;;;;;;;;;;;;5133248;27;1736;-51
2023/05/24 15:11:01;;;;;;;;;;;;;;;;;;5133403;27;1651;-59
2023/05/24 15:13:28;;;;;;;;;;;;;;;;;;5132799;27;2297;-48
2023/05/24 15:15:59;;;;;;;;;;;;;;;;;;5132925;27;2024;-56
2023/05/24 15:18:28;;;;;;;;;;;;;;;;;;5132915;27;1610;-64
2023/05/24 15:20:58;;;;;;;;;;;;;;;;;;5132585;27;2550;-65
2023/05/24 15:23:26;;;;;;;;;;;;;;;;;;5131560;27;2201;-57
2023/05/24 15:25:53;;;;;;;;;;;;;;;;;;5130896;27;2250;-54
2023/05/24 15:28:20;;;;;;;;;;;;;;;;;;5130748;27;1760;-59
2023/05/24 15:30:49;;;;;;;;;;;;;;;;;;5130627;27;1772;-63
2023/05/24 15:33:16;;;;;;;;;;;;;;;;;;5130694;27;2105;-54
2023/05/24 15:35:44;;;;;;;;;;;;;;;;;;5131849;27;2126;-64
2023/05/24 15:38:11;;;;;;;;;;;;;;;;;;5132677;27;1985;-59
2023/05/24 15:40:40;;;;;;;;;;;;;;;;;;5132381;27;1973;-59
2023/05/24 15:43:08;;;;;;;;;;;;;;;;;;5132508;27;1296;-51
2023/05/24 15:45:35;;;;;;;;;;;;;;;;;;5132725;27;1875;-51
2023/05/24 15:48:03;;;;;;;;;;;;;;;;;;5132618;27;2133;-53
2023/05/24 15:50:31;;;;;;;;;;;;;;;;;;5132046;27;1987;-65
2023/05/24 15:53:18;;;;;;;;;;;;;;;;;;5129666;27;2168;-56
2023/05/24 15:55:47;;;;;;;;;;;;;;;;;;5111834;28;1827;-52
2023/05/24 15:58:14;;;;;;;;;;;;;;;;;;5125316;27;1727;-58
2023/05/24 16:00:41;;;;;;;;;;;;;;;;;;5132167;27;1909;-60
2023/05/24 16:03:14;;;;;;;;;;;;;;;;;;5113761;27;2107;-52
2023/05/24 16:05:41;;;;;;;;;;;;;;;;;;5131672;27;1797;-65
2023/05/24 16:08:08;;;;;;;;;;;;;;;;;;5132448;27;1912;-60
2023/05/24 16:10:36;;;;;;;;;;;;;;;;;;5132519;27;1970;-57
2023/05/24 16:13:03;;;;;;;;;;;;;;;;;;5131996;27;1443;-60
2023/05/24 16:15:32;;;;;;;;;;;;;;;;;;5132009;28;1813;-56
2023/05/24 16:17:59;;;;;;;;;;;;;;;;;;5131955;28;2117;-61
2023/05/24 16:20:26;;;;;;;;;;;;;;;;;;5131823;28;2017;-64
2023/05/24 16:22:54;;;;;;;;;;;;;;;;;;5132143;28;2111;-61
2023/05/24 16:25:21;;;;;;;;;;;;;;;;;;5132193;28;1815;-60
2023/05/24 16:27:48;;;;;;;;;;;;;;;;;;5131835;28;1710;-63
2023/05/24 16:30:15;;;;;;;;;;;;;;;;;;5131928;28;1854;-51
2023/05/24 16:32:44;;;;;;;;;;;;;;;;;;5132010;28;1458;-63
2023/05/24 16:35:11;;;;;;;;;;;;;;;;;;5132000;28;2024;-61
2023/05/24 16:37:38;;;;;;;;;;;;;;;;;;5132253;28;2299;-59
2023/05/24 16:40:06;;;;;;;;;;;;;;;;;;5131998;28;1882;-62
2023/05/24 16:42:33;;;;;;;;;;;;;;;;;;5131813;28;1425;-58
2023/05/24 16:45:01;;;;;;;;;;;;;;;;;;5131920;28;2586;-51
2023/05/24 16:47:28;;;;;;;;;;;;;;;;;;5131882;28;1958;-55
2023/05/24 16:49:55;;;;;;;;;;;;;;;;;;5131825;28;1546;-52
2023/05/24 16:52:23;;;;;;;;;;;;;;;;;;5131754;28;1889;-63
2023/05/24 16:54:50;;;;;;;;;;;;;;;;;;5116043;28;2166;-64
2023/05/24 16:57:17;;;;;;;;;;;;;;;;;;5116616;28;1845;-60
2023/05/24 16:59:45;;;;;;;;;;;;;;;;;;5131739;28;1972;-60
2023/05/24 17:02:13;;;;;;;;;;;;;;;;;;5131564;28;1900;-59
2023/05/24 17:04:40;;;;;;;;;;;;;;;;;;5113612;28;1779;-60
2023/05/24 17:07:07;;;;;;;;;;;;;;;;;;5131832;28;1442;-53
2023/05/24 17:09:34;;;;;;;;;;;;;;;;;;5131640;28;1705;-59
2023/05/24 17:12:02;;;;;;;;;;;;;;;;;;5131393;28;2309;-56